Merced, California
Current Conditions -  °F | °C
As of 12:35 PM on Friday 21 Nov 2014 (Local Time) from KMCE Reporting Station
Scattered Clouds Scattered Clouds  
Wind Chill: 58°   Ceiling: Unl
Heat Index: 58°   Visibility: 7mi
Dew Point: 48°   Wind: 6mph
Humidity: 70%   Direction: 330°NNW
Pressure: 30.1"   Gusts: NA
Location:  37.3°N, 120.48°W
Report Text: KMCE 212035Z AUTO 33005KT 7SM SCT015 14/09 A3010 RMK AO2 T01440089
Loading
Personal Weather Stations






























Interactive Weather Map New forecast layout! Learn more

10-Day Weather Forecast

Advertisements
Track Severe Weather on mobile